Time;durP1;ratioP1;P1;durP2;ratioP2;P2;SDS_P1;SDS_P2;PMS_P1;PMS_P2;Temp;Humidity;BMP_temperature;BMP_pressure;BME280_temperature;BME280_humidity;BME280_pressure;Samples;Min_cycle;Max_cycle;Signal;HPM_P1;HPM_P2
2022/06/23 00:00:27;;;;;;;22.80;15.48;;;;;;;24.11;64.85;100332.16;4915003;29;20052;-65
2022/06/23 00:03:20;;;;;;;25.35;16.13;;;;;;;24.01;65.19;100330.28;4908050;29;20656;-65
2022/06/23 00:06:08;;;;;;;23.52;16.17;;;;;;;23.99;65.55;100325.13;4927070;29;20039;-64
2022/06/23 00:08:53;;;;;;;27.08;16.63;;;;;;;23.93;65.44;100334.34;4913855;29;20052;-64
2022/06/23 00:11:48;;;;;;;36.83;16.20;;;;;;;23.72;65.80;100327.81;4914827;29;20044;-62
2022/06/23 00:14:32;;;;;;;28.17;16.98;;;;;;;23.58;66.87;100339.09;4914605;29;20040;-64
2022/06/23 00:17:25;;;;;;;24.90;17.33;;;;;;;23.68;66.30;100329.88;4908318;29;20044;-65
2022/06/23 00:20:16;;;;;;;29.98;18.75;;;;;;;23.46;66.76;100331.31;4908905;29;20044;-63
2022/06/23 00:23:11;;;;;;;27.35;16.80;;;;;;;23.40;67.03;100330.16;4925143;29;20035;-64
2022/06/23 00:26:18;;;;;;;22.33;15.95;;;;;;;23.64;66.26;100326.34;4928612;29;20036;-63
2022/06/23 00:29:10;;;;;;;21.83;16.52;;;;;;;23.69;65.87;100323.13;4913242;29;20048;-64
2022/06/23 00:31:58;;;;;;;27.88;16.90;;;;;;;23.64;66.28;100320.78;4914754;29;20040;-64
2022/06/23 00:34:58;;;;;;;32.20;16.95;;;;;;;23.46;66.74;100328.53;4916594;29;20052;-64
2022/06/23 00:37:49;;;;;;;27.52;19.40;;;;;;;22.80;69.22;100327.91;4914228;29;20044;-63
2022/06/23 00:40:34;;;;;;;30.90;19.48;;;;;;;22.54;70.62;100329.22;4911752;29;20063;-64
2022/06/23 00:43:21;;;;;;;33.97;19.58;;;;;;;22.50;71.36;100326.44;4914494;29;20407;-65
2022/06/23 00:46:14;;;;;;;29.25;18.30;;;;;;;22.59;70.69;100332.34;4914492;29;20043;-63
2022/06/23 00:49:13;;;;;;;30.48;17.92;;;;;;;23.17;68.63;100325.19;4913082;29;20044;-63
2022/06/23 00:52:15;;;;;;;35.08;20.05;;;;;;;23.04;68.66;100329.69;4913642;29;20048;-65
2022/06/23 00:55:13;;;;;;;33.78;19.65;;;;;;;23.01;69.11;100327.69;4914363;29;20048;-64
2022/06/23 00:58:03;;;;;;;33.80;21.02;;;;;;;22.85;69.66;100325.47;4914030;29;20048;-63
2022/06/23 01:00:52;;;;;;;34.08;19.85;;;;;;;22.85;69.85;100331.03;4913837;29;20047;-64
2022/06/23 01:03:45;;;;;;;28.20;19.75;;;;;;;22.82;69.86;100328.25;4914604;29;20052;-62
2022/06/23 01:06:44;;;;;;;27.52;20.92;;;;;;;23.23;67.92;100328.31;4918014;29;20040;-64
2022/06/23 01:09:51;;;;;;;27.85;20.13;;;;;;;23.33;67.13;100327.44;4913407;29;20496;-63
2022/06/23 01:12:46;;;;;;;26.95;18.42;;;;;;;23.32;67.38;100329.41;4912207;29;20044;-63
2022/06/23 01:15:45;;;;;;;37.22;20.13;;;;;;;23.18;68.10;100325.97;4914189;29;20043;-63
2022/06/23 01:18:38;;;;;;;33.15;21.30;;;;;;;23.30;67.57;100323.50;4920873;29;20499;-64
2022/06/23 01:21:36;;;;;;;35.25;19.83;;;;;;;23.13;68.42;100318.88;4895358;29;20412;-64
2022/06/23 01:24:34;;;;;;;28.20;19.73;;;;;;;23.07;68.42;100319.72;4895461;29;20037;-62
2022/06/23 01:27:50;;;;;;;28.20;18.27;;;;;;;23.09;68.30;100318.13;4898375;29;20040;-61
2022/06/23 01:30:42;;;;;;;29.33;18.40;;;;;;;23.00;67.66;100315.06;4915627;29;20044;-63
2022/06/23 01:33:43;;;;;;;24.75;18.55;;;;;;;22.91;68.48;100320.25;4912682;29;20047;-63
2022/06/23 01:36:45;;;;;;;26.55;16.85;;;;;;;22.86;68.67;100329.81;4898551;29;20045;-63
2022/06/23 01:39:59;;;;;;;32.00;16.73;;;;;;;22.89;68.61;100320.69;4898583;29;20056;-62
2022/06/23 01:42:53;;;;;;;20.75;15.52;;;;;;;22.95;69.22;100324.59;4898601;29;20044;-62
2022/06/23 01:45:45;;;;;;;26.30;18.37;;;;;;;22.85;69.84;100330.22;4912243;29;20044;-62
2022/06/23 01:48:51;;;;;;;26.20;17.88;;;;;;;23.16;68.10;100328.41;4916226;29;20052;-63
2022/06/23 01:51:50;;;;;;;21.30;16.25;;;;;;;23.16;67.98;100328.41;4915641;29;20048;-62
2022/06/23 01:54:35;;;;;;;28.67;17.13;;;;;;;23.20;67.76;100324.38;4916610;29;20044;-65
2022/06/23 01:57:36;;;;;;;29.90;17.00;;;;;;;22.94;68.79;100325.78;4916728;29;20044;-62
2022/06/23 02:00:25;;;;;;;29.08;16.80;;;;;;;22.95;68.72;100330.16;4917367;29;20057;-62
2022/06/23 02:03:20;;;;;;;29.55;16.10;;;;;;;22.93;69.30;100340.84;4917107;29;20048;-61
2022/06/23 02:06:19;;;;;;;28.98;17.42;;;;;;;22.78;68.83;100339.38;4904442;29;20413;-62
2022/06/23 02:09:17;;;;;;;31.92;17.95;;;;;;;22.77;69.29;100334.22;4897711;29;20052;-61
2022/06/23 02:12:04;;;;;;;24.48;15.73;;;;;;;22.77;69.33;100325.91;4912970;29;20052;-61
2022/06/23 02:14:56;;;;;;;25.58;16.00;;;;;;;22.86;69.01;100340.91;4916348;29;20052;-62
2022/06/23 02:17:47;;;;;;;25.70;16.50;;;;;;;22.86;68.96;100338.13;4897810;29;20049;-64
2022/06/23 02:20:52;;;;;;;29.35;15.57;;;;;;;23.15;67.13;100332.34;4898176;29;20053;-62
2022/06/23 02:23:55;;;;;;;27.70;16.38;;;;;;;22.92;67.45;100344.03;4897992;29;20041;-62
2022/06/23 02:26:59;;;;;;;25.77;15.57;;;;;;;22.77;68.86;100346.13;4898280;29;20404;-62
2022/06/23 02:29:52;;;;;;;29.08;16.23;;;;;;;22.80;69.05;100350.06;4913739;29;20420;-62
2022/06/23 02:33:04;;;;;;;21.92;14.68;;;;;;;22.88;68.27;100354.34;4912630;29;20040;-64
2022/06/23 02:36:13;;;;;;;22.40;14.25;;;;;;;23.10;68.26;100350.22;4915579;29;20052;-62
2022/06/23 02:39:05;;;;;;;20.27;13.20;;;;;;;22.95;68.64;100346.00;4916082;29;20048;-63
2022/06/23 02:41:56;;;;;;;21.10;16.25;;;;;;;22.83;69.75;100355.59;4900191;29;20040;-63
2022/06/23 02:45:09;;;;;;;19.23;14.00;;;;;;;23.10;67.87;100355.78;4916051;29;20048;-63
2022/06/23 02:47:56;;;;;;;19.52;13.32;;;;;;;23.10;67.40;100360.53;4950710;23;20062;-79
2022/06/23 02:50:50;;;;;;;23.98;14.38;;;;;;;22.93;68.13;100353.94;4948764;29;20043;-79
2022/06/23 02:54:02;;;;;;;121.60;29.40;;;;;;;22.96;68.33;100359.44;4954512;29;20043;-82
2022/06/23 02:57:02;;;;;;;54.30;19.00;;;;;;;23.17;67.72;100361.25;4934836;29;20036;-80
2022/06/23 03:00:12;;;;;;;35.45;14.52;;;;;;;23.35;66.63;100364.69;4931368;29;20048;-80
2022/06/23 03:03:15;;;;;;;32.53;14.60;;;;;;;23.64;66.53;100370.75;4930789;29;20509;-80
2022/06/23 03:06:28;;;;;;;18.58;11.45;;;;;;;23.80;65.98;100365.44;4943535;29;20413;-78
2022/06/23 03:09:21;;;;;;;29.67;14.43;;;;;;;23.95;65.20;100368.84;4916160;29;20506;-80
2022/06/23 03:12:25;;;;;;;18.92;13.00;;;;;;;24.21;63.45;100372.94;4924478;29;20052;-80
2022/06/23 03:15:21;;;;;;;15.20;10.43;;;;;;;24.58;62.60;100381.16;4921135;29;20047;-81
2022/06/23 03:18:19;;;;;;;23.75;11.02;;;;;;;24.90;61.36;100382.72;4920116;29;20040;-81
2022/06/23 03:21:12;;;;;;;21.25;11.52;;;;;;;25.00;60.96;100381.75;4945401;29;20428;-80
2022/06/23 03:24:11;;;;;;;22.23;12.38;;;;;;;25.16;59.95;100384.69;4933710;29;20040;-80
2022/06/23 03:27:11;;;;;;;28.08;10.93;;;;;;;25.14;60.48;100381.56;4945709;29;20039;-80
2022/06/23 03:30:04;;;;;;;19.83;12.55;;;;;;;25.05;61.21;100382.06;4919504;29;20041;-80
2022/06/23 03:32:56;;;;;;;25.65;11.82;;;;;;;24.97;61.20;100380.63;4932630;29;20048;-80
2022/06/23 03:35:52;;;;;;;15.40;9.48;;;;;;;25.14;60.50;100376.75;4921643;29;20056;-80
2022/06/23 03:42:04;;;;;;;14.52;9.82;;;;;;;25.47;59.38;100366.66;4904284;29;20048;-80
2022/06/23 03:45:11;;;;;;;16.95;9.75;;;;;;;25.59;58.85;100370.06;4902592;29;20052;-81
2022/06/23 03:48:04;;;;;;;19.70;10.13;;;;;;;25.70;58.75;100374.22;4902172;29;20044;-80
2022/06/23 03:51:13;;;;;;;16.48;10.02;;;;;;;25.75;58.40;100370.94;4904285;29;20040;-80
2022/06/23 03:54:17;;;;;;;23.85;9.75;;;;;;;25.84;58.26;100381.53;4903597;29;20425;-80
2022/06/23 03:57:37;;;;;;;17.02;10.52;;;;;;;25.89;58.04;100386.63;4910018;29;20048;-80
2022/06/23 04:00:28;;;;;;;22.23;10.80;;;;;;;25.89;58.08;100387.41;4924168;29;20044;-80
2022/06/23 04:03:18;;;;;;;18.45;8.93;;;;;;;25.90;57.82;100385.41;4932182;29;20048;-80
2022/06/23 04:06:15;;;;;;;14.82;9.10;;;;;;;25.93;57.55;100384.53;4937917;29;20043;-80
2022/06/23 04:09:05;;;;;;;16.63;9.32;;;;;;;25.95;57.98;100391.28;4933686;29;20047;-80
2022/06/23 04:12:09;;;;;;;19.50;8.82;;;;;;;25.98;57.32;100389.63;4921758;29;20047;-80
2022/06/23 04:15:07;;;;;;;13.82;8.60;;;;;;;25.97;57.32;100393.63;4931292;29;20043;-80
2022/06/23 04:17:57;;;;;;;15.27;8.32;;;;;;;26.01;57.35;100399.91;4927468;29;20052;-81
2022/06/23 04:20:49;;;;;;;18.63;9.60;;;;;;;25.98;57.21;100400.75;4927006;29;20055;-81
2022/06/23 04:23:38;;;;;;;12.82;7.80;;;;;;;26.01;57.21;100408.25;4926063;29;20043;-80
2022/06/23 04:26:46;;;;;;;12.85;7.32;;;;;;;26.03;56.74;100403.06;4926236;29;20050;-80
2022/06/23 04:29:38;;;;;;;14.60;7.70;;;;;;;25.83;56.88;100405.81;4925364;29;20051;-79
2022/06/23 04:32:30;;;;;;;13.90;7.93;;;;;;;25.66;57.33;100406.13;4905454;29;20059;-79
2022/06/23 04:35:20;;;;;;;15.30;8.60;;;;;;;25.64;57.41;100409.38;4909169;29;20051;-79
2022/06/23 04:38:11;;;;;;;14.77;7.25;;;;;;;25.71;57.33;100412.00;4911610;29;20059;-79
2022/06/23 04:41:04;;;;;;;22.25;8.70;;;;;;;25.79;56.70;100416.25;4932957;29;20067;-79
2022/06/23 04:43:52;;;;;;;12.00;7.32;;;;;;;25.79;56.60;100421.03;4939779;29;20066;-80
2022/06/23 04:46:46;;;;;;;16.15;6.70;;;;;;;25.92;56.54;100422.75;4934851;29;20047;-79
2022/06/23 04:49:31;;;;;;;;;;;;;;;25.97;56.08;100424.25;4926417;29;20074;-79
2022/06/23 04:52:29;;;;;;;18.52;8.88;;;;;;;25.92;56.49;100424.75;4927059;29;19919;-79
2022/06/23 04:55:22;;;;;;;18.75;7.95;;;;;;;26.00;56.34;100423.44;4926985;29;20047;-79
2022/06/23 04:58:21;;;;;;;13.43;8.32;;;;;;;26.01;56.38;100432.59;4931734;29;20043;-79
2022/06/23 05:01:14;;;;;;;24.55;8.20;;;;;;;26.04;56.50;100424.13;4910809;29;20059;-78
2022/06/23 05:03:59;;;;;;;15.65;8.43;;;;;;;26.05;56.71;100425.72;4921737;29;20044;-79
2022/06/23 05:06:48;;;;;;;17.25;8.90;;;;;;;26.09;56.75;100423.66;4926879;29;20529;-79
2022/06/23 05:09:38;;;;;;;12.43;8.55;;;;;;;26.05;57.33;100428.50;4921226;29;20059;-78
2022/06/23 05:12:40;;;;;;;21.58;10.00;;;;;;;26.11;57.00;100435.13;4927191;29;20059;-78
2022/06/23 05:15:36;;;;;;;33.42;19.00;;;;;;;25.94;58.54;100441.84;4925584;29;20048;-80
2022/06/23 05:18:25;;;;;;;36.15;17.98;;;;;;;25.64;60.08;100444.78;4926765;29;20040;-78
2022/06/23 05:21:17;;;;;;;30.05;19.65;;;;;;;25.52;60.60;100446.94;4911062;29;20051;-79
2022/06/23 05:24:06;;;;;;;38.15;18.05;;;;;;;25.66;59.94;100447.91;4932050;29;20036;-78
2022/06/23 05:27:00;;;;;;;46.30;20.10;;;;;;;25.30;62.16;100445.69;4940960;29;20031;-78
2022/06/23 05:30:10;;;;;;;38.20;23.08;;;;;;;24.81;64.94;100449.19;4928218;29;20048;-77
2022/06/23 05:33:00;;;;;;;37.65;26.33;;;;;;;24.22;68.13;100455.91;4920470;29;20506;-78
2022/06/23 05:35:58;;;;;;;32.60;25.42;;;;;;;23.94;69.51;100456.16;4915159;29;20040;-78
2022/06/23 05:38:53;;;;;;;32.13;23.95;;;;;;;23.79;70.64;100461.06;4924234;29;20040;-78
2022/06/23 05:41:45;;;;;;;40.47;26.08;;;;;;;24.09;69.51;100465.13;4921340;29;20052;-78
2022/06/23 05:44:43;;;;;;;46.50;27.48;;;;;;;23.98;69.65;100458.88;4925792;29;20036;-78
2022/06/23 05:47:31;;;;;;;35.42;24.88;;;;;;;24.10;69.77;100467.50;4936756;28;20502;-78
2022/06/23 05:50:29;;;;;;;42.08;26.58;;;;;;;24.20;69.13;100468.63;4910900;29;20043;-78
2022/06/23 05:53:34;;;;;;;31.52;25.05;;;;;;;24.41;68.20;100479.50;4924442;29;20501;-78
2022/06/23 05:56:31;;;;;;;42.60;23.10;;;;;;;24.97;65.82;100483.56;4925905;29;20413;-78
2022/06/23 05:59:29;;;;;;;32.88;23.73;;;;;;;24.81;65.77;100477.00;4902726;29;20586;-78
2022/06/23 06:02:31;;;;;;;35.30;24.00;;;;;;;24.65;66.17;100478.41;4899344;29;20044;-78
2022/06/23 06:05:34;;;;;;;35.17;23.17;;;;;;;24.64;66.65;100474.03;4912023;29;20048;-78
2022/06/23 06:08:24;;;;;;;37.65;22.40;;;;;;;24.97;65.74;100483.56;4925434;29;20040;-78
2022/06/23 06:11:10;;;;;;;46.90;23.00;;;;;;;25.38;64.11;100486.16;4911351;29;20045;-78
2022/06/23 06:13:55;;;;;;;33.60;21.73;;;;;;;25.10;64.75;100486.56;4898856;29;20049;-78
2022/06/23 06:16:41;;;;;;;33.42;20.27;;;;;;;25.26;63.84;100495.06;4900891;29;20499;-78
2022/06/23 06:19:29;;;;;;;31.95;22.23;;;;;;;25.18;64.04;100488.06;4898941;29;20056;-78
2022/06/23 06:22:31;;;;;;;36.28;20.25;;;;;;;25.68;62.54;100487.28;4904223;29;20048;-78
2022/06/23 06:25:29;;;;;;;32.10;19.48;;;;;;;26.17;60.90;100497.53;4910855;29;20044;-77
2022/06/23 06:28:16;;;;;;;41.78;20.52;;;;;;;26.17;60.48;100491.19;4928780;29;20040;-77
2022/06/23 06:31:18;;;;;;;37.78;20.83;;;;;;;26.43;60.07;100497.88;4917310;29;20044;-77
2022/06/23 06:34:12;;;;;;;36.03;24.58;;;;;;;26.77;59.47;100495.56;4917694;29;20083;-77
2022/06/23 06:36:57;;;;;;;38.05;23.85;;;;;;;26.80;59.08;100495.53;4917213;29;20032;-77
2022/06/23 06:39:46;;;;;;;40.45;24.23;;;;;;;26.74;59.28;100488.06;4918143;29;20056;-78
2022/06/23 06:42:35;;;;;;;39.80;23.35;;;;;;;27.01;57.92;100504.69;4914105;29;20040;-78
2022/06/23 06:45:29;;;;;;;31.50;21.02;;;;;;;27.27;56.78;100500.09;4920066;29;20505;-77
2022/06/23 06:48:23;;;;;;;29.77;19.13;;;;;;;27.23;56.39;100511.34;4908788;29;20040;-77
2022/06/23 06:51:16;;;;;;;32.30;17.75;;;;;;;27.73;55.04;100510.19;4928996;29;20043;-78
2022/06/23 06:54:06;;;;;;;39.28;21.90;;;;;;;27.26;55.80;100518.06;4936977;29;20505;-78
2022/06/23 06:56:56;;;;;;;36.63;21.40;;;;;;;27.95;53.94;100520.38;4939557;29;20040;-78
2022/06/23 06:59:54;;;;;;;29.83;20.42;;;;;;;28.65;51.63;100530.88;4940814;29;20413;-78
2022/06/23 07:02:50;;;;;;;31.83;19.13;;;;;;;29.07;50.74;100525.28;4937759;29;20044;-77
2022/06/23 07:06:00;;;;;;;31.92;18.90;;;;;;;29.29;49.24;100538.22;4939616;29;20044;-78
2022/06/23 07:08:52;;;;;;;27.90;17.60;;;;;;;28.26;51.83;100540.38;4917665;29;20044;-77
2022/06/23 07:11:41;;;;;;;28.60;18.05;;;;;;;29.35;49.42;100537.69;4925917;29;20040;-79
2022/06/23 07:14:53;;;;;;;31.02;18.27;;;;;;;30.98;44.66;100541.25;4901605;29;20071;-78
2022/06/23 07:17:44;;;;;;;30.02;18.70;;;;;;;29.32;48.72;100542.16;4903390;29;20036;-78
2022/06/23 07:20:41;;;;;;;36.65;19.48;;;;;;;30.84;45.36;100545.38;4902433;29;20057;-78
2022/06/23 07:24:02;;;;;;;32.80;17.63;;;;;;;30.92;43.85;100541.06;4900722;29;20053;-78
2022/06/23 07:26:58;;;;;;;27.23;15.48;;;;;;;31.13;43.54;100535.91;4903603;29;20056;-78
2022/06/23 07:29:50;;;;;;;25.75;16.00;;;;;;;32.18;41.13;100542.03;4915197;29;20039;-78
2022/06/23 07:32:51;;;;;;;32.60;17.60;;;;;;;31.57;42.04;100542.19;4927285;29;20060;-78
2022/06/23 07:35:51;;;;;;;28.45;15.93;;;;;;;31.31;43.02;100530.34;4922038;29;20039;-78
2022/06/23 07:38:45;;;;;;;30.45;18.05;;;;;;;30.05;45.44;100537.38;4924902;29;20036;-80
2022/06/23 07:41:35;;;;;;;29.77;16.38;;;;;;;30.14;45.83;100543.88;4902950;29;20048;-80
2022/06/23 07:44:26;;;;;;;27.17;15.98;;;;;;;30.86;43.81;100540.09;4923255;29;20421;-78
2022/06/23 07:47:11;;;;;;;29.13;16.98;;;;;;;29.69;46.46;100538.56;4935925;29;20036;-78
2022/06/23 07:49:56;;;;;;;22.92;16.48;;;;;;;29.49;47.55;100540.81;4932052;29;20045;-78
2022/06/23 07:52:43;;;;;;;33.20;18.08;;;;;;;29.36;48.09;100550.47;4927886;29;20036;-78
2022/06/23 07:55:40;;;;;;;31.63;16.17;;;;;;;30.24;45.94;100558.75;4928820;29;20044;-79
2022/06/23 07:58:29;;;;;;;30.67;18.30;;;;;;;30.00;47.09;100560.41;4930757;29;20044;-78
2022/06/23 08:01:17;;;;;;;27.95;17.50;;;;;;;30.05;46.61;100566.22;4927714;29;20056;-78
2022/06/23 08:04:22;;;;;;;34.58;16.92;;;;;;;29.89;47.36;100562.75;4932506;29;20036;-78
2022/06/23 08:07:09;;;;;;;29.95;17.35;;;;;;;29.58;48.59;100573.75;4918166;29;20048;-79
2022/06/23 08:10:00;;;;;;;30.30;19.60;;;;;;;29.20;49.20;100573.72;4904534;29;20045;-79
2022/06/23 08:12:55;;;;;;;33.42;18.85;;;;;;;33.74;39.25;100582.75;4931151;29;20044;-79
2022/06/23 08:18:59;;;;;;;23.48;15.73;;;;;;;37.87;30.95;100601.81;4927699;29;20414;-79
2022/06/23 08:21:52;;;;;;;26.63;16.88;;;;;;;36.82;31.79;100599.63;4931419;29;20047;-79
2022/06/23 08:24:38;;;;;;;26.58;16.48;;;;;;;32.38;40.79;100583.78;4940139;29;20520;-79
2022/06/23 08:27:28;;;;;;;28.23;16.67;;;;;;;33.51;38.85;100570.16;4940322;29;20035;-79
2022/06/23 08:30:17;;;;;;;26.05;16.45;;;;;;;32.77;40.57;100584.09;4943000;29;20043;-80
2022/06/23 08:33:03;;;;;;;31.95;16.65;;;;;;;32.91;40.19;100575.81;4922058;29;20040;-77
2022/06/23 08:35:51;;;;;;;33.13;14.85;;;;;;;32.04;43.31;100573.56;4930043;29;20052;-77
2022/06/23 08:38:50;;;;;;;33.55;13.45;;;;;;;30.96;46.97;100566.19;4940450;29;20039;-77
2022/06/23 08:41:44;;;;;;;25.58;11.90;;;;;;;30.44;48.03;100567.66;4942170;29;20051;-77
2022/06/23 08:45:12;;;;;;;31.85;11.48;;;;;;;30.04;47.68;100567.47;4940252;29;20039;-78
2022/06/23 08:48:31;;;;;;;32.35;12.07;;;;;;;29.71;48.41;100561.28;4971396;23;20051;-71
2022/06/23 08:51:36;;;;;;;32.42;10.30;;;;;;;29.44;49.28;100563.78;4932766;29;20047;-69
2022/06/23 08:54:53;;;;;;;25.95;10.20;;;;;;;29.22;49.89;100557.25;4946223;29;20043;-68
2022/06/23 08:58:05;;;;;;;43.20;8.93;;;;;;;29.16;49.66;100564.63;4942657;28;20040;-67
2022/06/23 09:01:00;;;;;;;20.83;8.68;;;;;;;29.11;49.00;100560.34;4939680;29;20066;-68
2022/06/23 09:04:00;;;;;;;20.80;9.48;;;;;;;28.98;49.28;100558.78;4939752;29;20063;-69
2022/06/23 09:06:50;;;;;;;23.58;9.02;;;;;;;28.93;49.00;100551.72;4939607;29;20051;-67
2022/06/23 09:09:46;;;;;;;20.92;7.55;;;;;;;29.21;45.75;100553.66;4939726;29;20070;-68
2022/06/23 09:12:46;;;;;;;23.67;6.43;;;;;;;29.40;46.92;100551.13;4939837;29;20054;-68
2022/06/23 09:16:00;;;;;;;19.35;6.47;;;;;;;29.28;47.96;100550.63;4940204;29;20050;-67
2022/06/23 09:18:57;;;;;;;20.15;6.82;;;;;;;28.76;49.16;100547.41;4936495;29;20063;-65
2022/06/23 09:22:03;;;;;;;16.00;6.78;;;;;;;28.88;48.63;100549.47;4939630;29;20055;-67
2022/06/23 09:24:51;;;;;;;11.90;6.45;;;;;;;28.70;49.05;100552.72;4939685;29;20403;-66
2022/06/23 09:28:11;;;;;;;19.42;8.02;;;;;;;28.51;49.07;100559.28;4939232;29;20399;-66
2022/06/23 09:30:56;;;;;;;19.50;6.55;;;;;;;28.56;49.09;100561.53;4939357;29;20059;-68
2022/06/23 09:33:53;;;;;;;24.35;6.10;;;;;;;28.55;48.97;100554.34;4938968;29;20074;-65
2022/06/23 09:37:05;;;;;;;16.45;5.40;;;;;;;28.46;49.13;100554.22;4945216;29;20054;-67
2022/06/23 09:40:22;;;;;;;20.60;6.97;;;;;;;28.41;49.05;100554.75;4956293;28;20073;-67
2022/06/23 09:43:39;;;;;;;12.40;5.05;;;;;;;28.49;48.35;100556.94;4958715;29;20050;-65
2022/06/23 09:46:42;;;;;;;18.48;5.30;;;;;;;28.40;48.61;100550.38;4956242;28;20629;-64
2022/06/23 09:49:52;;;;;;;35.60;5.65;;;;;;;28.40;47.32;100553.97;4955492;29;20101;-66
2022/06/23 09:52:48;;;;;;;34.22;5.57;;;;;;;28.45;47.61;100555.44;4955513;29;20050;-67
2022/06/23 09:55:40;;;;;;;23.15;4.63;;;;;;;28.42;48.28;100550.75;4949622;29;20637;-68
2022/06/23 09:58:48;;;;;;;15.88;5.38;;;;;;;28.43;47.91;100553.09;4930337;29;20047;-66
2022/06/23 10:01:54;;;;;;;14.10;4.88;;;;;;;28.38;47.73;100545.25;4936092;29;20059;-65
2022/06/23 10:05:03;;;;;;;21.85;5.53;;;;;;;28.64;47.33;100542.53;4936242;29;20087;-67
2022/06/23 10:08:04;;;;;;;21.05;6.30;;;;;;;28.63;46.96;100533.34;4935772;29;20065;-65
2022/06/23 10:11:14;;;;;;;19.50;6.15;;;;;;;28.52;47.59;100527.28;4938684;28;20400;-66
2022/06/23 10:14:18;;;;;;;37.45;6.95;;;;;;;28.68;47.17;100524.41;4935793;29;20058;-66
2022/06/23 10:17:29;;;;;;;34.50;7.93;;;;;;;28.69;47.28;100523.19;4939211;29;20051;-66
2022/06/23 10:20:42;;;;;;;31.60;6.35;;;;;;;28.70;46.68;100515.59;4932643;29;20047;-65
2022/06/23 10:23:51;;;;;;;28.65;6.95;;;;;;;28.63;46.76;100513.78;4933207;29;20039;-65
2022/06/23 10:26:48;;;;;;;18.77;5.47;;;;;;;28.63;47.26;100512.97;4935237;29;20062;-66
2022/06/23 10:29:48;;;;;;;16.77;6.18;;;;;;;28.58;47.48;100511.53;4936761;29;20062;-66
2022/06/23 10:32:48;;;;;;;18.02;5.70;;;;;;;28.53;47.54;100517.66;4933562;29;20070;-68
2022/06/23 10:36:03;;;;;;;13.55;5.90;;;;;;;28.68;46.66;100518.81;4933850;29;20054;-66
2022/06/23 10:39:05;;;;;;;18.17;5.43;;;;;;;28.55;47.10;100522.81;4935056;29;20050;-65
2022/06/23 10:42:27;;;;;;;23.20;5.07;;;;;;;28.89;45.59;100520.25;4935326;29;20054;-63
2022/06/23 10:45:16;;;;;;;20.75;5.55;;;;;;;28.81;46.26;100525.25;4929142;29;20055;-64
2022/06/23 10:48:38;;;;;;;19.40;6.10;;;;;;;29.21;44.83;100519.25;4934356;29;20042;-65
2022/06/23 10:51:42;;;;;;;22.60;6.40;;;;;;;29.13;45.43;100526.31;4935258;29;20110;-63
2022/06/23 10:54:47;;;;;;;27.13;6.68;;;;;;;29.41;43.98;100527.50;4934789;29;20054;-64
2022/06/23 10:58:00;;;;;;;18.55;5.65;;;;;;;29.61;44.21;100522.44;4931121;29;20063;-65
2022/06/23 11:00:49;;;;;;;15.13;5.13;;;;;;;29.16;45.29;100520.59;4934926;29;20435;-63
2022/06/23 11:03:53;;;;;;;17.55;6.43;;;;;;;28.91;45.70;100514.97;4933980;29;20062;-64
2022/06/23 11:07:20;;;;;;;16.27;5.47;;;;;;;29.08;45.83;100507.25;4932881;29;20051;-65
2022/06/23 11:10:26;;;;;;;18.58;5.50;;;;;;;28.89;46.31;100498.63;4934598;29;20058;-64
2022/06/23 11:13:52;;;;;;;23.45;6.93;;;;;;;28.84;46.18;100498.41;4934365;29;20047;-63
2022/06/23 11:16:59;;;;;;;19.80;5.63;;;;;;;28.80;46.46;100509.69;4935082;29;20050;-64
2022/06/23 11:19:56;;;;;;;20.92;6.63;;;;;;;28.91;46.13;100512.16;4934264;29;20074;-64
2022/06/23 11:22:57;;;;;;;23.05;6.53;;;;;;;29.13;45.71;100512.31;4932792;29;20051;-65
2022/06/23 11:25:51;;;;;;;13.95;5.95;;;;;;;28.79;46.55;100496.94;4933230;29;20063;-67
2022/06/23 11:28:39;;;;;;;28.30;6.85;;;;;;;29.00;46.11;100505.94;4931295;29;20058;-68
2022/06/23 11:31:30;;;;;;;28.77;7.07;;;;;;;28.90;46.34;100505.78;4934495;29;20429;-65
2022/06/23 11:34:41;;;;;;;22.38;7.50;;;;;;;28.81;46.61;100511.25;4937639;29;20062;-64
2022/06/23 11:37:40;;;;;;;35.75;6.60;;;;;;;29.15;46.17;100504.25;4933646;29;20042;-64
2022/06/23 11:40:46;;;;;;;21.58;6.70;;;;;;;29.07;46.04;100505.69;4938303;28;20046;-63
2022/06/23 11:43:53;;;;;;;23.85;6.55;;;;;;;28.95;46.54;100514.88;4931154;29;20046;-64
2022/06/23 11:47:05;;;;;;;28.08;8.43;;;;;;;29.03;46.78;100505.03;4931197;29;20526;-66
2022/06/23 11:50:13;;;;;;;24.40;6.45;;;;;;;29.17;46.02;100504.56;4930964;29;20408;-64
2022/06/23 11:53:14;;;;;;;21.65;6.50;;;;;;;29.20;45.70;100498.09;4933179;29;20419;-63
2022/06/23 11:56:15;;;;;;;28.27;8.10;;;;;;;28.98;46.21;100497.16;4934589;28;20055;-63
2022/06/23 11:59:12;;;;;;;19.67;6.03;;;;;;;29.10;45.89;100490.81;4932268;29;20042;-62
2022/06/23 12:01:58;;;;;;;19.20;6.15;;;;;;;28.99;45.68;100502.34;4932853;29;20046;-62
2022/06/23 12:04:56;;;;;;;23.95;5.72;;;;;;;29.07;45.71;100494.50;4931605;29;20063;-64
2022/06/23 12:07:57;;;;;;;23.65;6.38;;;;;;;29.06;46.01;100499.31;4934955;29;20039;-65
2022/06/23 12:10:42;;;;;;;30.98;6.07;;;;;;;29.20;45.02;100500.91;4932012;29;20063;-63
2022/06/23 12:13:28;;;;;;;23.60;7.80;;;;;;;29.98;42.45;100499.13;4933033;29;20058;-64
2022/06/23 12:16:13;;;;;;;30.55;6.55;;;;;;;30.36;41.66;100492.59;4933429;29;20058;-64
2022/06/23 12:19:03;;;;;;;25.17;6.47;;;;;;;30.70;39.90;100492.56;4933479;29;20035;-62
2022/06/23 12:22:16;;;;;;;31.48;7.60;;;;;;;30.91;41.23;100499.38;4932845;29;20423;-63
2022/06/23 12:25:12;;;;;;;27.40;7.50;;;;;;;30.90;40.85;100503.44;4931644;29;20046;-64
2022/06/23 12:28:21;;;;;;;22.67;7.10;;;;;;;30.77;40.92;100516.78;4931450;29;20046;-62
2022/06/23 12:31:20;;;;;;;29.77;7.50;;;;;;;30.59;41.07;100512.59;4933331;29;20055;-63
2022/06/23 12:34:16;;;;;;;27.83;6.38;;;;;;;30.64;41.77;100513.25;4932865;29;20054;-64
2022/06/23 12:37:19;;;;;;;20.75;5.60;;;;;;;30.63;42.06;100523.69;4929847;29;20054;-63
2022/06/23 12:40:34;;;;;;;26.73;7.47;;;;;;;30.61;42.61;100525.41;4932042;29;20051;-64
2022/06/23 12:43:38;;;;;;;29.60;7.07;;;;;;;30.54;43.20;100529.25;4932953;29;20526;-64
2022/06/23 12:47:02;;;;;;;27.30;7.68;;;;;;;30.49;43.06;100522.19;4932085;29;20399;-64
2022/06/23 12:49:56;;;;;;;27.83;6.50;;;;;;;30.44;42.63;100525.56;4929568;29;20615;-64
2022/06/23 12:53:10;;;;;;;30.38;8.23;;;;;;;30.39;43.75;100528.16;4932724;29;20051;-64
2022/06/23 12:56:17;;;;;;;35.22;7.13;;;;;;;30.42;42.52;100521.66;4932890;29;20047;-63
2022/06/23 12:59:23;;;;;;;25.45;6.78;;;;;;;30.27;43.44;100524.19;4932017;29;20451;-66
2022/06/23 13:02:28;;;;;;;39.75;7.88;;;;;;;30.25;44.16;100518.25;4932810;29;20051;-64
2022/06/23 13:05:28;;;;;;;22.23;6.43;;;;;;;30.14;43.53;100526.25;4933769;29;20418;-65
2022/06/23 13:08:34;;;;;;;31.90;9.05;;;;;;;30.07;44.05;100518.09;4931373;29;20046;-64
2022/06/23 13:11:29;;;;;;;46.38;8.13;;;;;;;30.07;45.51;100510.44;4932447;29;20046;-64
2022/06/23 13:14:26;;;;;;;38.63;7.60;;;;;;;30.10;46.44;100503.16;4932704;29;20046;-64
2022/06/23 13:17:25;;;;;;;28.58;7.13;;;;;;;30.06;45.20;100505.31;4932404;29;20055;-64
2022/06/23 13:20:36;;;;;;;25.13;7.55;;;;;;;30.04;45.78;100502.16;4932385;29;20066;-64
2022/06/23 13:23:31;;;;;;;28.08;7.22;;;;;;;30.07;45.71;100495.66;4928711;29;20055;-64
2022/06/23 13:26:26;;;;;;;38.47;7.90;;;;;;;30.06;45.09;100491.28;4928038;29;20051;-64
2022/06/23 13:29:23;;;;;;;31.73;8.45;;;;;;;30.07;44.15;100482.38;4932931;29;20048;-64
2022/06/23 13:32:36;;;;;;;28.30;6.72;;;;;;;30.16;43.67;100490.13;4928732;29;20494;-64
2022/06/23 13:35:32;;;;;;;26.80;7.88;;;;;;;30.11;44.23;100485.88;4932933;29;20067;-64
2022/06/23 13:38:37;;;;;;;28.02;6.72;;;;;;;30.23;44.90;100478.63;4925970;29;20341;-64